Terminal Aerodrome Forecast
Issued by NWS

Home | Current Version | Previous Version | Text Only | Print | Product List | Glossary On
Versions: 1 2 3 4 5 6 7 8 9 10 11 12 13 14 15 16 17 18 19 20 21
000
FTUS44 KLZK 262300
TAFLLQ
TAF
KLLQ 262339Z 2700/2724 01007KT P6SM OVC035
      TEMPO 2700/2702 BKN025
     FM270200 01004KT P6SM BKN250
     FM271400 04010G18KT P6SM SCT100 OVC250
     FM271800 04010KT P6SM OVC100=

USA.gov is the U.S. government's official web portal to all federal, state and local government web resources and services.